Terminal Aerodrome Forecast
Issued by NWS

Home | Current Version | Previous Version | Text Only | Print | Product List | Glossary On
Versions: 1 2 3 4 5 6 7 8 9 10 11 12 13 14 15
000
FTUS46 KPDT 031140
TAFBDN
TAF
KBDN 031140Z 0312/0412 21007KT P6SM VCSH FEW080 SCT100 OVC120
     FM031800 29008G15KT P6SM SCT100 BKN150
     FM032100 34007KT P6SM VCTS SCT070CB OVC100CB
     FM040500 30008KT P6SM SCT090 BKN180=

USA.gov is the U.S. government's official web portal to all federal, state and local government web resources and services.